Time;durP1;ratioP1;P1;durP2;ratioP2;P2;SDS_P1;SDS_P2;PMS_P1;PMS_P2;Temp;Humidity;BMP_temperature;BMP_pressure;BME280_temperature;BME280_humidity;BME280_pressure;Samples;Min_cycle;Max_cycle;Signal;HPM_P1;HPM_P2
2024/03/11 09:46:20;;;;;;;2.63;2.00;;;;;;;;;;6187049;22;20484;31
2024/03/11 10:50:35;;;;;;;1.85;1.60;;;;;;;;;;6149397;23;20025;-96
2024/03/11 10:53:05;;;;;;;1.50;1.40;;;;;;;;;;6155908;23;20105;-87
2024/03/11 10:55:33;;;;;;;2.05;1.88;;;;;;;;;;6157606;23;20005;-96
2024/03/11 10:58:03;;;;;;;1.73;1.50;;;;;;;;;;6180322;23;20027;-88
2024/03/11 11:00:34;;;;;;;2.40;1.40;;;;;;;;;;6187203;23;20004;-96
2024/03/11 11:03:12;;;;;;;1.73;1.63;;;;;;;;;;6186961;23;20008;-94
2024/03/11 11:05:52;;;;;;;1.70;1.60;;;;;;;;;;6185456;23;20009;-95
2024/03/11 11:08:22;;;;;;;1.50;1.35;;;;;;;;;;6186770;23;20016;-93
2024/03/11 11:10:49;;;;;;;2.10;1.27;;;;;;;;;;6187420;23;20005;-91
2024/03/11 11:13:16;;;;;;;3.38;1.30;;;;;;;;;;6194343;23;20028;-95
2024/03/11 11:15:45;;;;;;;1.48;1.38;;;;;;;;;;6194132;23;20005;-95
2024/03/11 11:18:13;;;;;;;1.35;1.20;;;;;;;;;;6188225;23;20055;-90
2024/03/11 11:20:46;;;;;;;1.67;1.57;;;;;;;;;;6192734;23;20004;-90
2024/03/11 11:23:27;;;;;;;1.40;1.30;;;;;;;;;;6188162;23;19997;-92
2024/03/11 11:25:56;;;;;;;1.55;1.10;;;;;;;;;;6187756;23;20005;-90
2024/03/11 11:28:26;;;;;;;1.40;1.30;;;;;;;;;;6188651;23;20128;-96
2024/03/11 11:31:32;;;;;;;1.83;1.27;;;;;;;;;;6193776;23;19997;-94
2024/03/11 11:34:04;;;;;;;1.42;1.30;;;;;;;;;;6205616;23;20021;-95
2024/03/11 11:36:50;;;;;;;1.55;1.45;;;;;;;;;;6174341;23;19989;-96
2024/03/11 11:39:23;;;;;;;2.10;1.58;;;;;;;;;;6076324;23;20322;-94
2024/03/11 11:41:50;;;;;;;2.72;1.33;;;;;;;;;;6078481;23;20039;-93
2024/03/11 11:44:28;;;;;;;4.40;1.20;;;;;;;;;;6098107;23;20117;-91
2024/03/11 11:47:08;;;;;;;1.40;1.30;;;;;;;;;;6075376;23;20046;-94
2024/03/11 11:49:34;;;;;;;1.20;1.10;;;;;;;;;;6100644;23;20042;-89
2024/03/11 11:52:04;;;;;;;1.35;1.15;;;;;;;;;;6121389;23;20014;-95
2024/03/11 11:54:34;;;;;;;1.42;1.33;;;;;;;;;;6126719;23;20006;-89
2024/03/11 11:57:17;;;;;;;1.33;1.23;;;;;;;;;;6102721;23;20429;-92
2024/03/11 11:59:55;;;;;;;1.60;1.10;;;;;;;;;;6103087;23;20365;-91
2024/03/11 12:02:33;;;;;;;1.40;1.30;;;;;;;;;;6104918;23;20010;-94
2024/03/11 12:05:00;;;;;;;1.48;1.38;;;;;;;;;;6127348;23;20009;-93
2024/03/11 12:07:38;;;;;;;1.15;1.00;;;;;;;;;;6140849;22;20026;-89
2024/03/11 12:10:39;;;;;;;1.20;1.10;;;;;;;;;;6240758;22;20008;-88
2024/03/11 12:16:30;;;;;;;2.55;2.03;;;;;;;;;;6256332;23;20107;-90
2024/03/11 12:19:07;;;;;;;1.20;1.00;;;;;;;;;;6244224;22;20042;-89
2024/03/11 12:22:26;;;;;;;1.00;1.00;;;;;;;;;;6287105;22;20019;-89
2024/03/11 12:25:02;;;;;;;1.80;1.25;;;;;;;;;;6284616;22;20006;-89
2024/03/11 12:27:30;;;;;;;3.22;2.00;;;;;;;;;;6288431;22;20085;-90
2024/03/11 12:30:05;;;;;;;2.40;1.27;;;;;;;;;;6256192;22;20011;-92
2024/03/11 12:32:31;;;;;;;1.60;1.40;;;;;;;;;;6262007;22;20019;-91
2024/03/11 12:35:00;;;;;;;3.13;1.50;;;;;;;;;;6254029;22;20004;-94
2024/03/11 12:37:26;;;;;;;2.22;1.45;;;;;;;;;;6254456;22;20000;-92
2024/03/11 12:39:52;;;;;;;2.90;1.70;;;;;;;;;;6255170;22;20008;-94
2024/03/11 12:42:27;;;;;;;2.88;1.50;;;;;;;;;;6279641;22;20000;-93
2024/03/11 12:44:54;;;;;;;1.92;1.40;;;;;;;;;;6278875;22;20003;-91
2024/03/11 17:32:03;;;;;;;3.47;3.17;;;;;;;;;;6232568;22;20349;-91
2024/03/11 17:34:30;;;;;;;7.70;5.68;;;;;;;;;;6250798;22;20494;-92
2024/03/11 17:36:57;;;;;;;7.95;5.78;;;;;;;;;;6250877;22;20438;-91
2024/03/11 17:39:22;;;;;;;11.68;6.25;;;;;;;;;;6253068;22;19996;-95
2024/03/11 17:41:49;;;;;;;10.93;6.97;;;;;;;;;;6252870;22;20014;-91
2024/03/11 17:44:16;;;;;;;8.05;6.03;;;;;;;;;;6251199;22;20505;-92
2024/03/11 17:46:42;;;;;;;6.20;4.50;;;;;;;;;;6278031;22;20038;-95
2024/03/11 17:49:10;;;;;;;4.32;3.63;;;;;;;;;;6250603;22;20014;-90
2024/03/11 17:51:37;;;;;;;4.45;3.20;;;;;;;;;;6250943;22;20008;-90
2024/03/11 17:54:04;;;;;;;3.00;2.58;;;;;;;;;;6251047;22;20137;-88
2024/03/11 17:56:33;;;;;;;4.50;3.58;;;;;;;;;;6251053;22;20026;-96
2024/03/11 17:58:59;;;;;;;3.03;2.00;;;;;;;;;;6251553;22;20003;-89
2024/03/11 18:01:25;;;;;;;1.80;1.70;;;;;;;;;;6251089;22;20000;-92
2024/03/11 18:03:51;;;;;;;2.10;1.90;;;;;;;;;;6279322;22;20391;-95
2024/03/11 18:06:17;;;;;;;2.30;1.60;;;;;;;;;;6278682;22;20011;-90
2024/03/11 18:08:43;;;;;;;1.60;1.50;;;;;;;;;;6251390;22;20022;-94
2024/03/11 18:11:09;;;;;;;4.07;3.60;;;;;;;;;;6252217;22;20003;-92
2024/03/11 18:13:35;;;;;;;4.30;3.90;;;;;;;;;;6286447;22;20007;-96
2024/03/11 18:16:01;;;;;;;2.70;2.50;;;;;;;;;;6257701;22;20016;-89
2024/03/11 18:18:30;;;;;;;2.00;1.90;;;;;;;;;;6250798;22;20084;-90
2024/03/11 18:20:55;;;;;;;3.03;2.57;;;;;;;;;;6277687;22;20004;-89
2024/03/11 18:23:23;;;;;;;2.95;2.55;;;;;;;;;;6277632;22;20253;-92
2024/03/11 18:25:53;;;;;;;2.33;2.13;;;;;;;;;;6250943;22;20090;-93
2024/03/11 18:28:20;;;;;;;2.13;1.98;;;;;;;;;;6277477;22;20031;-92
2024/03/11 18:30:47;;;;;;;2.90;2.70;;;;;;;;;;6277889;22;20319;-89
2024/03/11 18:33:13;;;;;;;1.70;1.60;;;;;;;;;;6250806;22;20015;-92
2024/03/11 18:35:42;;;;;;;1.40;1.30;;;;;;;;;;6250371;22;20035;-90
2024/03/11 18:38:07;;;;;;;2.40;1.50;;;;;;;;;;6252712;22;20008;-89
2024/03/11 18:40:33;;;;;;;2.85;1.40;;;;;;;;;;6251084;22;20089;-92
2024/03/11 18:43:04;;;;;;;1.35;1.25;;;;;;;;;;6251326;22;20004;-88
2024/03/11 18:45:29;;;;;;;2.95;1.15;;;;;;;;;;6250908;22;20004;-89
2024/03/11 18:47:55;;;;;;;1.42;1.33;;;;;;;;;;6250767;22;20042;-89
2024/03/11 18:50:22;;;;;;;1.60;1.50;;;;;;;;;;6250697;22;20004;-91
2024/03/11 18:52:49;;;;;;;2.08;1.40;;;;;;;;;;6277965;22;20335;-91
2024/03/11 18:58:10;;;;;;;1.40;1.33;;;;;;;;;;6283803;22;20014;-96
2024/03/11 19:00:37;;;;;;;2.65;1.10;;;;;;;;;;6252107;22;20022;-95
2024/03/11 19:03:05;;;;;;;1.58;1.40;;;;;;;;;;6252181;22;20085;-95
2024/03/11 19:05:31;;;;;;;2.67;1.23;;;;;;;;;;6252394;22;20334;-96
2024/03/11 19:08:04;;;;;;;1.50;1.40;;;;;;;;;;6251992;22;20015;-96
2024/03/11 19:10:31;;;;;;;3.17;1.35;;;;;;;;;;6252143;22;20006;-94
2024/03/11 19:12:56;;;;;;;57.90;22.77;;;;;;;;;;6251512;22;20088;-91
2024/03/11 19:15:24;;;;;;;114.05;38.58;;;;;;;;;;6250928;22;20000;-96
2024/03/11 19:17:50;;;;;;;179.23;65.22;;;;;;;;;;6251611;22;20434;-96
2024/03/11 19:20:17;;;;;;;250.35;76.80;;;;;;;;;;6254253;22;20004;-93
2024/03/11 19:22:47;;;;;;;147.40;44.97;;;;;;;;;;6251677;22;20447;-90
2024/03/11 19:25:23;;;;;;;48.58;13.45;;;;;;;;;;6251547;22;20438;-95
2024/03/11 19:27:50;;;;;;;69.88;30.65;;;;;;;;;;6250733;22;20019;-90
2024/03/11 19:30:21;;;;;;;192.23;51.60;;;;;;;;;;6277623;22;20433;-93
2024/03/11 19:32:47;;;;;;;28.05;9.88;;;;;;;;;;6279184;22;20039;-91
2024/03/11 19:35:15;;;;;;;12.63;4.40;;;;;;;;;;6250418;22;20043;-92
2024/03/11 19:38:13;;;;;;;10.02;5.63;;;;;;;;;;6250567;22;19999;-89
2024/03/11 19:41:25;;;;;;;8.52;4.00;;;;;;;;;;6254819;22;20003;-91
2024/03/11 19:44:05;;;;;;;2.55;2.17;;;;;;;;;;6228481;22;20012;-94
2024/03/11 19:46:50;;;;;;;2.63;2.33;;;;;;;;;;6228334;22;20023;-91
2024/03/11 19:49:57;;;;;;;2.45;2.22;;;;;;;;;;6252868;22;20008;-92
2024/03/11 19:53:02;;;;;;;3.10;2.60;;;;;;;;;;6254589;22;20012;-91
2024/03/11 19:56:00;;;;;;;2.10;1.88;;;;;;;;;;6253587;22;20434;-93
2024/03/11 19:59:04;;;;;;;3.00;2.25;;;;;;;;;;6252408;22;20008;-90
2024/03/11 20:01:39;;;;;;;3.42;2.17;;;;;;;;;;6253009;22;20011;-96
2024/03/11 20:04:42;;;;;;;2.33;2.13;;;;;;;;;;6252653;22;20010;-89
2024/03/11 20:07:50;;;;;;;1.80;1.63;;;;;;;;;;6252070;22;20007;-93
2024/03/11 20:10:57;;;;;;;1.83;1.73;;;;;;;;;;6279291;22;19999;-89
2024/03/11 20:13:47;;;;;;;2.25;2.00;;;;;;;;;;6250776;22;20003;-88
2024/03/11 20:16:44;;;;;;;2.72;2.08;;;;;;;;;;6252719;22;20004;-89
2024/03/11 20:19:35;;;;;;;2.00;1.80;;;;;;;;;;6253408;22;20098;-90
2024/03/11 20:22:38;;;;;;;3.05;1.50;;;;;;;;;;6251630;22;20000;-92
2024/03/11 20:25:31;;;;;;;1.60;1.50;;;;;;;;;;6279359;22;20328;-87
2024/03/11 20:28:05;;;;;;;2.58;2.00;;;;;;;;;;6254242;22;20339;-93
2024/03/11 20:30:39;;;;;;;4.22;1.92;;;;;;;;;;6253944;22;20019;-96
2024/03/11 20:33:06;;;;;;;1.83;1.42;;;;;;;;;;6253816;22;20027;-96
2024/03/11 20:35:34;;;;;;;2.40;1.98;;;;;;;;;;6252396;22;20077;-94
2024/03/11 20:38:01;;;;;;;2.65;1.90;;;;;;;;;;6278623;22;19999;-90
2024/03/11 20:40:28;;;;;;;3.42;2.05;;;;;;;;;;6251778;22;20483;-93
2024/03/11 20:42:54;;;;;;;4.05;1.70;;;;;;;;;;6278662;22;20323;-94
2024/03/11 20:45:21;;;;;;;2.25;2.05;;;;;;;;;;6252323;22;20000;-90
2024/03/11 20:47:49;;;;;;;2.90;2.17;;;;;;;;;;6252734;22;20463;-95
2024/03/11 20:50:17;;;;;;;3.65;2.03;;;;;;;;;;6253138;22;20010;-95
2024/03/11 20:52:45;;;;;;;2.60;1.77;;;;;;;;;;6252335;22;20090;-95
2024/03/11 20:55:11;;;;;;;3.83;2.60;;;;;;;;;;6279879;22;20007;-94
2024/03/11 20:57:40;;;;;;;2.30;1.92;;;;;;;;;;6253089;22;20004;-95
2024/03/11 21:00:16;;;;;;;2.55;2.35;;;;;;;;;;6252970;22;20003;-92
2024/03/11 21:02:46;;;;;;;5.97;3.40;;;;;;;;;;6252276;22;20008;-87
2024/03/11 21:05:14;;;;;;;2.85;2.45;;;;;;;;;;6252751;22;20007;-90
2024/03/11 21:07:50;;;;;;;3.80;1.70;;;;;;;;;;6251582;22;20374;-90
2024/03/11 21:10:16;;;;;;;2.33;2.13;;;;;;;;;;6229717;22;20035;-89
2024/03/11 21:12:42;;;;;;;3.58;1.98;;;;;;;;;;6253279;22;20007;-93
2024/03/11 21:15:11;;;;;;;2.70;2.28;;;;;;;;;;6281425;22;19999;-94
2024/03/11 21:17:40;;;;;;;3.38;2.35;;;;;;;;;;6253478;22;20007;-91
2024/03/11 21:20:12;;;;;;;3.42;2.63;;;;;;;;;;6250481;22;20008;-89
2024/03/11 21:22:40;;;;;;;2.80;2.30;;;;;;;;;;6250031;22;20012;-94
2024/03/11 21:25:32;;;;;;;2.33;1.80;;;;;;;;;;6252162;22;20008;-92
2024/03/11 21:27:54;;;;;;;1.98;1.77;;;;;;;;;;6277841;22;20075;-95
2024/03/11 21:30:21;;;;;;;1.98;1.70;;;;;;;;;;6278703;22;19999;-96
2024/03/11 21:32:48;;;;;;;2.78;2.08;;;;;;;;;;6251879;22;20035;-92
2024/03/11 21:35:19;;;;;;;2.38;2.17;;;;;;;;;;6252277;22;20008;-95
2024/03/11 21:37:45;;;;;;;2.40;2.20;;;;;;;;;;6252202;22;20061;-94
2024/03/11 21:40:13;;;;;;;2.30;2.17;;;;;;;;;;6279426;22;20007;-95
2024/03/11 21:42:46;;;;;;;2.20;2.00;;;;;;;;;;6227852;22;20008;-94
2024/03/11 21:45:12;;;;;;;4.22;2.47;;;;;;;;;;6252215;22;20000;-93
2024/03/11 21:47:39;;;;;;;2.45;2.00;;;;;;;;;;6252208;22;20008;-93
2024/03/11 21:50:06;;;;;;;5.57;2.50;;;;;;;;;;6252780;22;20004;-95
2024/03/11 21:52:33;;;;;;;2.50;2.28;;;;;;;;;;6252650;22;20046;-90
2024/03/11 21:54:59;;;;;;;2.47;2.13;;;;;;;;;;6279146;22;20057;-92
2024/03/11 21:57:33;;;;;;;2.92;2.40;;;;;;;;;;6251908;22;20003;-90
2024/03/11 21:59:59;;;;;;;2.67;2.35;;;;;;;;;;6251718;22;20038;-93
2024/03/11 22:02:27;;;;;;;3.25;2.47;;;;;;;;;;6278550;22;20419;-94
2024/03/11 22:04:57;;;;;;;5.30;2.97;;;;;;;;;;6252515;22;20012;-93
2024/03/11 22:07:24;;;;;;;3.05;2.40;;;;;;;;;;6253646;22;20003;-91
2024/03/11 22:09:57;;;;;;;2.67;2.47;;;;;;;;;;6252935;22;20003;-90
2024/03/11 22:12:22;;;;;;;4.43;3.40;;;;;;;;;;6222164;23;20090;-95
2024/03/11 22:14:48;;;;;;;4.43;3.67;;;;;;;;;;6221770;23;20008;-95
2024/03/11 22:17:14;;;;;;;5.00;3.75;;;;;;;;;;6221766;23;20089;-95
2024/03/11 22:19:39;;;;;;;6.28;3.67;;;;;;;;;;6221885;23;20430;-96
2024/03/11 22:22:05;;;;;;;4.45;3.30;;;;;;;;;;6221234;23;20004;-93
2024/03/11 22:24:34;;;;;;;3.97;3.60;;;;;;;;;;6222379;23;20000;-92
2024/03/11 22:27:04;;;;;;;5.20;3.33;;;;;;;;;;6222972;23;20132;-96
2024/03/11 22:29:31;;;;;;;5.20;3.05;;;;;;;;;;6222816;23;20479;-96
2024/03/11 22:31:57;;;;;;;4.95;3.15;;;;;;;;;;6251381;23;20319;-96
2024/03/11 22:34:22;;;;;;;4.72;3.45;;;;;;;;;;6250171;23;20048;-96
2024/03/11 22:36:48;;;;;;;3.58;2.95;;;;;;;;;;6222423;23;20390;-96
2024/03/11 22:39:22;;;;;;;4.00;3.00;;;;;;;;;;6222889;23;20484;-96
2024/03/11 22:41:48;;;;;;;6.22;3.15;;;;;;;;;;6222050;23;20028;-96
2024/03/11 22:44:20;;;;;;;5.60;2.92;;;;;;;;;;6221569;23;20038;-91
2024/03/11 22:46:47;;;;;;;2.33;2.13;;;;;;;;;;6251345;23;20004;-93
2024/03/11 22:49:14;;;;;;;2.53;2.33;;;;;;;;;;6224306;23;20008;-96
2024/03/11 22:51:42;;;;;;;2.88;2.67;;;;;;;;;;6224158;23;20007;-91
2024/03/11 22:54:08;;;;;;;6.30;2.08;;;;;;;;;;6251271;23;20071;-94
2024/03/11 22:56:33;;;;;;;3.97;2.50;;;;;;;;;;6222220;23;20012;-91
2024/03/11 22:58:59;;;;;;;4.18;3.35;;;;;;;;;;6248844;23;19996;-96
2024/03/11 23:01:33;;;;;;;3.20;2.90;;;;;;;;;;6221964;23;20011;-95
2024/03/11 23:03:58;;;;;;;3.53;2.90;;;;;;;;;;6222229;23;20490;-96
2024/03/11 23:06:25;;;;;;;4.28;2.90;;;;;;;;;;6223237;23;20012;-96
2024/03/11 23:08:51;;;;;;;3.75;2.83;;;;;;;;;;6222928;23;20000;-93
2024/03/11 23:11:18;;;;;;;5.30;3.13;;;;;;;;;;6223722;23;20027;-90
2024/03/11 23:13:49;;;;;;;4.53;2.83;;;;;;;;;;6224807;23;20008;-96
2024/03/11 23:16:17;;;;;;;2.75;2.55;;;;;;;;;;6226976;23;20127;-94
2024/03/11 23:18:46;;;;;;;4.20;1.88;;;;;;;;;;6226349;23;20012;-96
2024/03/11 23:21:15;;;;;;;1.63;1.50;;;;;;;;;;6252960;23;20006;-92
2024/03/11 23:23:45;;;;;;;2.30;1.60;;;;;;;;;;6226026;23;20004;-90
2024/03/11 23:26:15;;;;;;;;;;;;;;;;;;6224379;23;20007;-92
